Time;durP1;ratioP1;P1;durP2;ratioP2;P2;SDS_P1;SDS_P2;PMS_P1;PMS_P2;Temp;Humidity;BMP_temperature;BMP_pressure;BME280_temperature;BME280_humidity;BME280_pressure;Samples;Min_cycle;Max_cycle;Signal;HPM_P1;HPM_P2
2021/09/04 00:01:48;;;;;;;9.43;7.60;;;;;;;;;;5045442;28;20026;-78
2021/09/04 00:04:14;;;;;;;9.27;7.25;;;;;;;;;;5045687;28;20149;-79
2021/09/04 00:06:40;;;;;;;7.57;6.78;;;;;;;;;;5040464;28;20131;-79
2021/09/04 00:09:06;;;;;;;7.45;6.43;;;;;;;;;;5046500;28;20045;-79
2021/09/04 00:11:32;;;;;;;10.65;7.20;;;;;;;;;;5032284;28;20032;-80
2021/09/04 00:13:59;;;;;;;9.38;7.38;;;;;;;;;;5048008;28;20210;-78
2021/09/04 00:16:25;;;;;;;9.50;6.88;;;;;;;;;;5049780;28;20025;-80
2021/09/04 00:18:51;;;;;;;7.40;6.50;;;;;;;;;;5033292;28;20039;-80
2021/09/04 00:21:17;;;;;;;7.97;6.78;;;;;;;;;;5033802;28;20025;-78
2021/09/04 00:23:43;;;;;;;9.63;6.72;;;;;;;;;;5032792;28;20047;-80
2021/09/04 00:26:09;;;;;;;8.55;6.50;;;;;;;;;;5031639;28;20029;-79
2021/09/04 00:28:35;;;;;;;9.10;7.28;;;;;;;;;;5049873;28;20026;-80
2021/09/04 00:31:01;;;;;;;8.07;6.03;;;;;;;;;;5047988;28;20124;-80
2021/09/04 00:33:27;;;;;;;8.27;6.90;;;;;;;;;;5046072;28;20029;-81
2021/09/04 00:35:53;;;;;;;8.55;6.55;;;;;;;;;;5024918;28;20033;-80
2021/09/04 00:38:19;;;;;;;7.45;6.53;;;;;;;;;;5053389;28;20033;-79
2021/09/04 00:40:45;;;;;;;8.10;6.43;;;;;;;;;;5054470;28;20033;-78
2021/09/04 00:43:11;;;;;;;8.13;6.22;;;;;;;;;;5056447;28;20036;-81
2021/09/04 00:45:37;;;;;;;7.53;6.35;;;;;;;;;;5040170;28;20014;-80
2021/09/04 00:48:05;;;;;;;7.63;6.25;;;;;;;;;;5057027;28;20065;-80
2021/09/04 00:50:32;;;;;;;7.70;6.03;;;;;;;;;;5034317;28;20030;-81
2021/09/04 00:52:58;;;;;;;8.07;6.90;;;;;;;;;;5029754;28;20115;-80
2021/09/04 00:55:25;;;;;;;7.68;6.22;;;;;;;;;;5046534;28;20022;-79
2021/09/04 00:57:51;;;;;;;9.07;7.28;;;;;;;;;;5045866;28;20070;-80
2021/09/04 01:00:17;;;;;;;8.52;7.13;;;;;;;;;;5046325;28;20036;-80
2021/09/04 01:02:43;;;;;;;11.15;8.07;;;;;;;;;;5047793;28;20045;-79
2021/09/04 01:05:09;;;;;;;9.05;7.50;;;;;;;;;;5040235;28;20077;-80
2021/09/04 01:07:36;;;;;;;9.95;7.60;;;;;;;;;;5048535;28;20034;-80
2021/09/04 01:10:04;;;;;;;9.73;6.95;;;;;;;;;;5048412;28;20501;-81
2021/09/04 01:12:31;;;;;;;7.85;6.63;;;;;;;;;;5048298;28;20052;-79
2021/09/04 01:14:57;;;;;;;8.68;6.65;;;;;;;;;;5049147;28;20029;-80
2021/09/04 01:17:24;;;;;;;8.90;7.22;;;;;;;;;;5029686;28;20044;-80
2021/09/04 01:19:50;;;;;;;8.85;6.63;;;;;;;;;;5047474;28;20033;-82
2021/09/04 01:22:16;;;;;;;10.55;7.10;;;;;;;;;;5029779;28;20117;-79
2021/09/04 01:24:42;;;;;;;8.63;6.95;;;;;;;;;;5044633;28;20060;-78
2021/09/04 01:27:08;;;;;;;7.72;6.57;;;;;;;;;;5042813;28;20026;-79
2021/09/04 01:29:34;;;;;;;6.90;5.63;;;;;;;;;;5041922;28;20025;-80
2021/09/04 01:32:00;;;;;;;7.30;6.13;;;;;;;;;;5046650;28;20025;-80
2021/09/04 01:34:26;;;;;;;7.18;5.60;;;;;;;;;;5019752;28;20060;-81
2021/09/04 01:36:52;;;;;;;7.35;5.88;;;;;;;;;;5044702;28;20056;-80
2021/09/04 01:39:21;;;;;;;7.28;6.28;;;;;;;;;;5048010;28;20069;-80
2021/09/04 01:41:49;;;;;;;7.38;5.82;;;;;;;;;;5030384;28;20036;-81
2021/09/04 01:44:15;;;;;;;8.32;6.65;;;;;;;;;;5030426;28;20033;-81
2021/09/04 01:46:41;;;;;;;7.85;6.80;;;;;;;;;;5030383;28;20097;-82
2021/09/04 01:49:07;;;;;;;7.82;6.38;;;;;;;;;;5034705;28;20497;-80
2021/09/04 01:51:33;;;;;;;8.73;6.18;;;;;;;;;;5038566;28;20371;-81
2021/09/04 01:54:00;;;;;;;9.77;6.95;;;;;;;;;;5038682;28;20022;-81
2021/09/04 01:56:26;;;;;;;9.57;7.28;;;;;;;;;;5043740;28;20025;-81
2021/09/04 01:58:52;;;;;;;8.30;6.68;;;;;;;;;;5047748;28;20095;-80
2021/09/04 02:01:18;;;;;;;7.10;6.13;;;;;;;;;;5030477;28;20044;-81
2021/09/04 02:03:44;;;;;;;7.82;6.30;;;;;;;;;;5024608;28;20030;-80
2021/09/04 02:06:10;;;;;;;7.15;5.65;;;;;;;;;;5049050;28;20029;-80
2021/09/04 02:08:36;;;;;;;7.90;6.07;;;;;;;;;;5032211;28;20029;-81
2021/09/04 02:11:02;;;;;;;8.52;6.47;;;;;;;;;;5047280;28;20081;-79
2021/09/04 02:13:28;;;;;;;9.18;6.03;;;;;;;;;;5046940;28;20018;-80
2021/09/04 02:15:55;;;;;;;7.63;6.10;;;;;;;;;;5048540;28;20053;-81
2021/09/04 02:18:21;;;;;;;7.75;5.82;;;;;;;;;;5029807;28;20112;-81
2021/09/04 02:20:48;;;;;;;7.45;6.25;;;;;;;;;;5030098;28;20014;-81
2021/09/04 02:23:14;;;;;;;7.45;6.30;;;;;;;;;;5048668;28;20021;-80
2021/09/04 02:25:40;;;;;;;6.85;5.28;;;;;;;;;;5048006;28;20026;-81
2021/09/04 02:28:06;;;;;;;6.30;5.38;;;;;;;;;;5046624;28;20017;-82
2021/09/04 02:30:32;;;;;;;6.55;5.53;;;;;;;;;;5031770;28;20120;-81
2021/09/04 02:32:58;;;;;;;6.68;5.15;;;;;;;;;;5048284;28;20026;-81
2021/09/04 02:37:55;;;;;;;7.47;5.22;;;;;;;;;;5044158;28;20068;-81
2021/09/04 02:40:21;;;;;;;8.27;6.65;;;;;;;;;;5036957;28;20025;-80
2021/09/04 02:42:47;;;;;;;6.53;5.57;;;;;;;;;;5034043;28;20120;-81
2021/09/04 02:45:13;;;;;;;5.72;5.13;;;;;;;;;;5035314;28;20426;-81
2021/09/04 02:47:40;;;;;;;7.18;6.00;;;;;;;;;;5035337;28;20041;-81
2021/09/04 02:50:06;;;;;;;7.85;5.78;;;;;;;;;;5036507;28;20127;-80
2021/09/04 02:52:32;;;;;;;6.90;6.00;;;;;;;;;;5035021;28;20096;-80
2021/09/04 02:54:58;;;;;;;7.70;6.13;;;;;;;;;;5035395;28;20501;-80
2021/09/04 02:57:24;;;;;;;8.40;5.60;;;;;;;;;;5037611;28;20041;-80
2021/09/04 02:59:50;;;;;;;7.05;6.22;;;;;;;;;;5035094;28;20492;-80
2021/09/04 03:02:16;;;;;;;8.02;6.20;;;;;;;;;;5036637;28;20049;-80
2021/09/04 03:04:42;;;;;;;7.65;6.07;;;;;;;;;;5013889;28;20398;-82
2021/09/04 03:07:08;;;;;;;6.65;5.95;;;;;;;;;;5033416;28;20026;-80
2021/09/04 03:09:34;;;;;;;8.00;5.72;;;;;;;;;;5017830;28;20026;-79
2021/09/04 03:12:02;;;;;;;8.07;6.50;;;;;;;;;;5034555;28;20021;-82
2021/09/04 03:14:28;;;;;;;8.52;6.40;;;;;;;;;;5018958;28;20036;-80
2021/09/04 03:16:54;;;;;;;7.32;6.30;;;;;;;;;;5035231;28;20072;-81
2021/09/04 03:19:21;;;;;;;9.70;6.75;;;;;;;;;;5034967;28;20492;-81
2021/09/04 03:21:47;;;;;;;7.95;6.38;;;;;;;;;;5034652;28;20017;-81
2021/09/04 03:24:13;;;;;;;7.50;5.68;;;;;;;;;;5036592;28;20025;-81
2021/09/04 03:26:39;;;;;;;6.30;5.43;;;;;;;;;;5035985;28;20036;-83
2021/09/04 03:29:05;;;;;;;7.15;5.50;;;;;;;;;;5033861;28;20469;-80
2021/09/04 03:31:31;;;;;;;5.95;5.35;;;;;;;;;;5034841;28;20113;-79
2021/09/04 03:34:00;;;;;;;7.38;5.88;;;;;;;;;;5034533;28;20344;-80
2021/09/04 03:36:26;;;;;;;6.55;5.25;;;;;;;;;;5027276;28;20075;-81
2021/09/04 03:38:52;;;;;;;6.15;5.50;;;;;;;;;;5034366;28;20026;-80
2021/09/04 03:41:18;;;;;;;5.50;4.88;;;;;;;;;;5019741;28;20079;-80
2021/09/04 03:43:44;;;;;;;6.50;5.35;;;;;;;;;;5034867;28;20029;-80
2021/09/04 03:46:10;;;;;;;6.40;5.22;;;;;;;;;;5034343;28;20033;-79
2021/09/04 03:48:36;;;;;;;6.88;5.38;;;;;;;;;;5036475;28;20029;-78
2021/09/04 03:51:03;;;;;;;7.45;5.90;;;;;;;;;;5020505;28;20036;-82
2021/09/04 03:53:30;;;;;;;7.88;6.30;;;;;;;;;;5037152;28;20118;-78
2021/09/04 03:55:56;;;;;;;8.68;6.53;;;;;;;;;;5034502;28;20068;-78
2021/09/04 03:58:22;;;;;;;7.13;5.82;;;;;;;;;;5036064;28;20025;-79
2021/09/04 04:00:48;;;;;;;7.28;5.78;;;;;;;;;;5037124;28;20469;-79
2021/09/04 04:03:14;;;;;;;7.22;5.35;;;;;;;;;;5035046;28;20033;-79
2021/09/04 04:05:40;;;;;;;6.28;5.35;;;;;;;;;;5026664;28;20103;-79
2021/09/04 04:08:06;;;;;;;7.05;6.03;;;;;;;;;;5034601;28;20039;-80
2021/09/04 04:10:33;;;;;;;5.78;5.05;;;;;;;;;;5033777;28;20112;-79
2021/09/04 04:12:59;;;;;;;6.78;5.75;;;;;;;;;;5016259;28;20026;-79
2021/09/04 04:15:25;;;;;;;6.38;5.07;;;;;;;;;;5018782;28;20026;-79
2021/09/04 04:17:51;;;;;;;6.85;5.93;;;;;;;;;;5034906;28;20021;-80
2021/09/04 04:20:17;;;;;;;7.90;6.63;;;;;;;;;;5035544;28;20030;-82
2021/09/04 04:22:43;;;;;;;7.80;6.07;;;;;;;;;;5040117;28;20451;-80
2021/09/04 04:25:09;;;;;;;5.82;5.15;;;;;;;;;;5016808;28;20513;-81
2021/09/04 04:27:35;;;;;;;7.95;6.22;;;;;;;;;;5017519;28;20056;-79
2021/09/04 04:30:01;;;;;;;7.68;6.32;;;;;;;;;;5055704;28;20022;-84
2021/09/04 04:32:27;;;;;;;8.05;5.85;;;;;;;;;;5033037;28;20137;-81
2021/09/04 04:34:53;;;;;;;8.55;6.75;;;;;;;;;;5016611;28;20052;-81
2021/09/04 04:37:19;;;;;;;7.18;5.40;;;;;;;;;;5016676;28;20057;-79
2021/09/04 04:39:45;;;;;;;7.20;5.93;;;;;;;;;;5013323;28;20033;-79
2021/09/04 04:42:11;;;;;;;6.05;5.35;;;;;;;;;;5015768;28;20390;-81
2021/09/04 04:44:38;;;;;;;7.35;5.80;;;;;;;;;;5021318;28;20026;-82
2021/09/04 04:47:04;;;;;;;6.45;5.45;;;;;;;;;;5020773;28;20026;-80
2021/09/04 04:49:30;;;;;;;6.93;5.68;;;;;;;;;;5018023;28;20030;-80
2021/09/04 04:51:56;;;;;;;6.97;5.72;;;;;;;;;;5017880;28;20445;-80
2021/09/04 04:54:22;;;;;;;7.38;6.20;;;;;;;;;;5019112;28;20026;-81
2021/09/04 04:56:48;;;;;;;8.85;5.85;;;;;;;;;;5021145;28;20022;-82
2021/09/04 04:59:14;;;;;;;7.65;5.80;;;;;;;;;;5022548;28;20026;-83
2021/09/04 05:01:40;;;;;;;7.03;5.47;;;;;;;;;;5023986;28;20482;-79
2021/09/04 05:04:06;;;;;;;6.32;5.20;;;;;;;;;;5035493;28;20034;-84
2021/09/04 05:06:32;;;;;;;6.63;5.93;;;;;;;;;;5041984;28;20029;-82
2021/09/04 05:08:58;;;;;;;6.38;5.68;;;;;;;;;;5042770;28;20030;-82
2021/09/04 05:11:24;;;;;;;10.77;6.75;;;;;;;;;;5027441;28;20030;-81
2021/09/04 05:13:50;;;;;;;8.55;6.30;;;;;;;;;;5048476;28;20025;-80
2021/09/04 05:16:16;;;;;;;7.78;5.85;;;;;;;;;;5046179;28;20040;-81
2021/09/04 05:18:42;;;;;;;9.23;6.35;;;;;;;;;;5044711;28;20065;-82
2021/09/04 05:21:08;;;;;;;7.47;6.03;;;;;;;;;;5024918;28;20025;-81
2021/09/04 05:23:34;;;;;;;6.85;5.93;;;;;;;;;;5042806;28;20041;-82
2021/09/04 05:26:01;;;;;;;7.00;5.63;;;;;;;;;;5024932;28;20481;-81
2021/09/04 05:28:27;;;;;;;9.35;7.07;;;;;;;;;;5024619;28;20041;-81
2021/09/04 05:30:53;;;;;;;8.10;6.25;;;;;;;;;;5042725;28;20029;-81
2021/09/04 05:33:19;;;;;;;7.05;6.25;;;;;;;;;;5026647;28;20033;-81
2021/09/04 05:35:45;;;;;;;7.53;5.90;;;;;;;;;;5033818;28;20056;-81
2021/09/04 05:38:11;;;;;;;7.03;5.72;;;;;;;;;;5042872;28;20033;-79
2021/09/04 05:40:37;;;;;;;7.05;5.68;;;;;;;;;;5041786;28;20113;-81
2021/09/04 05:43:03;;;;;;;7.13;5.47;;;;;;;;;;5023962;28;20032;-81
2021/09/04 05:45:29;;;;;;;6.93;5.78;;;;;;;;;;5041740;28;20037;-83
2021/09/04 05:47:55;;;;;;;6.20;5.53;;;;;;;;;;5043738;28;20040;-81
2021/09/04 05:50:21;;;;;;;7.70;5.68;;;;;;;;;;5041692;28;20063;-82
2021/09/04 05:52:47;;;;;;;5.93;5.07;;;;;;;;;;5041997;28;20056;-82
2021/09/04 05:55:13;;;;;;;6.53;5.82;;;;;;;;;;5023140;28;20021;-83
2021/09/04 05:57:39;;;;;;;8.48;5.40;;;;;;;;;;5042739;28;20036;-82
2021/09/04 06:00:06;;;;;;;12.20;6.45;;;;;;;;;;5040735;28;20025;-82
2021/09/04 06:02:31;;;;;;;6.85;5.50;;;;;;;;;;5041268;28;20549;-82
2021/09/04 06:04:57;;;;;;;8.55;6.35;;;;;;;;;;5032112;28;20171;-81
2021/09/04 06:07:24;;;;;;;5.78;5.18;;;;;;;;;;5021553;28;20149;-82
2021/09/04 06:09:52;;;;;;;6.75;5.53;;;;;;;;;;5025458;28;20030;-81
2021/09/04 06:12:18;;;;;;;6.65;5.95;;;;;;;;;;5024653;28;20018;-81
2021/09/04 06:14:44;;;;;;;9.90;5.57;;;;;;;;;;5006694;28;20360;-80
2021/09/04 06:17:10;;;;;;;8.32;6.30;;;;;;;;;;5025515;28;20044;-85
2021/09/04 06:19:36;;;;;;;6.85;6.15;;;;;;;;;;5027411;28;20010;-83
2021/09/04 06:22:03;;;;;;;6.82;5.97;;;;;;;;;;5009085;28;20437;-83
2021/09/04 06:24:29;;;;;;;7.90;5.50;;;;;;;;;;5005594;28;20041;-83
2021/09/04 06:26:55;;;;;;;6.97;5.85;;;;;;;;;;5026958;28;20089;-82
2021/09/04 06:29:21;;;;;;;7.22;6.05;;;;;;;;;;5028683;28;20455;-83
2021/09/04 06:31:47;;;;;;;6.85;5.72;;;;;;;;;;5008327;28;20022;-81
2021/09/04 06:34:13;;;;;;;6.50;5.47;;;;;;;;;;5036575;28;20022;-83
2021/09/04 06:36:39;;;;;;;5.90;5.32;;;;;;;;;;5038736;28;20049;-84
2021/09/04 06:39:05;;;;;;;6.00;5.40;;;;;;;;;;5043661;28;20363;-83
2021/09/04 06:41:31;;;;;;;7.20;6.28;;;;;;;;;;5044192;28;20034;-82
2021/09/04 06:43:57;;;;;;;6.43;5.78;;;;;;;;;;5042645;28;20022;-83
2021/09/04 06:46:23;;;;;;;9.18;7.47;;;;;;;;;;5045038;28;20024;-82
2021/09/04 06:48:49;;;;;;;11.65;7.20;;;;;;;;;;5046695;28;20060;-83
2021/09/04 06:51:15;;;;;;;10.55;7.43;;;;;;;;;;5047989;28;20055;-82
2021/09/04 06:53:41;;;;;;;7.35;5.90;;;;;;;;;;5033810;28;20025;-82
2021/09/04 06:56:07;;;;;;;8.75;6.28;;;;;;;;;;5040371;28;20033;-83
2021/09/04 06:58:33;;;;;;;8.77;6.60;;;;;;;;;;5042429;28;20021;-83
2021/09/04 07:01:00;;;;;;;7.93;6.50;;;;;;;;;;5021955;28;20107;-83
2021/09/04 07:03:26;;;;;;;7.25;6.30;;;;;;;;;;5022608;28;20080;-84
2021/09/04 07:05:53;;;;;;;8.38;6.68;;;;;;;;;;5033091;28;20049;-84
2021/09/04 07:08:19;;;;;;;9.30;7.43;;;;;;;;;;5040394;28;20036;-83
2021/09/04 07:10:45;;;;;;;10.27;7.45;;;;;;;;;;5024365;28;20048;-84
2021/09/04 07:13:11;;;;;;;7.97;6.47;;;;;;;;;;5041495;28;20280;-84
2021/09/04 07:15:37;;;;;;;8.73;7.20;;;;;;;;;;5043121;28;20018;-82
2021/09/04 07:18:03;;;;;;;9.20;7.05;;;;;;;;;;5041014;28;20389;-84
2021/09/04 07:20:29;;;;;;;8.13;6.10;;;;;;;;;;5039105;28;20241;-82
2021/09/04 07:22:55;;;;;;;9.18;7.80;;;;;;;;;;5030961;28;20033;-80
2021/09/04 07:25:21;;;;;;;10.10;7.43;;;;;;;;;;5039093;28;20120;-79
2021/09/04 07:27:51;;;;;;;11.18;8.20;;;;;;;;;;5024688;28;20045;-84
2021/09/04 07:30:17;;;;;;;9.63;7.25;;;;;;;;;;5023003;28;20026;-82
2021/09/04 07:32:44;;;;;;;9.20;7.18;;;;;;;;;;5039205;28;20026;-82
2021/09/04 07:35:10;;;;;;;11.68;7.35;;;;;;;;;;5032503;28;20022;-82
2021/09/04 07:37:37;;;;;;;10.10;7.70;;;;;;;;;;5039940;28;20041;-82
2021/09/04 07:40:04;;;;;;;8.10;6.38;;;;;;;;;;5022201;28;20033;-83
2021/09/04 07:42:30;;;;;;;10.40;7.30;;;;;;;;;;5041265;28;20084;-83
2021/09/04 07:44:57;;;;;;;8.25;6.97;;;;;;;;;;5021806;28;20056;-83
2021/09/04 07:47:23;;;;;;;7.03;6.32;;;;;;;;;;5023925;28;20394;-80
2021/09/04 07:49:49;;;;;;;6.85;6.15;;;;;;;;;;5042254;28;20143;-83
2021/09/04 07:52:15;;;;;;;7.30;6.57;;;;;;;;;;5040210;28;20025;-83
2021/09/04 07:54:41;;;;;;;7.63;6.45;;;;;;;;;;5039959;28;20081;-82
2021/09/04 07:57:07;;;;;;;9.43;7.30;;;;;;;;;;5040768;28;20026;-83
2021/09/04 07:59:33;;;;;;;7.35;5.80;;;;;;;;;;5024107;28;20037;-83
2021/09/04 08:01:59;;;;;;;6.85;5.82;;;;;;;;;;5024186;28;20037;-83
2021/09/04 08:04:25;;;;;;;10.13;6.15;;;;;;;;;;5028930;28;20101;-82
2021/09/04 08:06:51;;;;;;;6.50;5.60;;;;;;;;;;5039806;28;20025;-83
2021/09/04 08:09:17;;;;;;;6.70;5.65;;;;;;;;;;5045599;28;20099;-80
2021/09/04 08:11:43;;;;;;;6.65;5.82;;;;;;;;;;5036691;28;20033;-80
2021/09/04 08:14:09;;;;;;;7.40;6.32;;;;;;;;;;5043774;28;20061;-81
2021/09/04 08:16:36;;;;;;;7.00;5.82;;;;;;;;;;5039116;28;20026;-82
2021/09/04 08:19:02;;;;;;;10.45;7.07;;;;;;;;;;5043928;28;20037;-81
2021/09/04 08:21:28;;;;;;;8.07;5.93;;;;;;;;;;5045205;28;20044;-82
2021/09/04 08:23:54;;;;;;;8.95;7.25;;;;;;;;;;5024538;28;20033;-84
2021/09/04 08:26:20;;;;;;;7.40;6.18;;;;;;;;;;5043682;28;20026;-84
2021/09/04 08:28:46;;;;;;;9.32;6.80;;;;;;;;;;5045068;28;20417;-84
2021/09/04 08:31:14;;;;;;;7.28;6.03;;;;;;;;;;5025611;28;20045;-83
2021/09/04 08:33:40;;;;;;;8.90;6.80;;;;;;;;;;5042852;28;20022;-84
2021/09/04 08:38:33;;;;;;;6.80;5.95;;;;;;;;;;5080071;22;20052;-78
2021/09/04 08:40:59;;;;;;;7.60;6.70;;;;;;;;;;5066697;28;20044;-80
2021/09/04 08:43:25;;;;;;;8.70;6.30;;;;;;;;;;5049433;28;20063;-80
2021/09/04 08:45:51;;;;;;;6.72;5.10;;;;;;;;;;5065782;28;20033;-79
2021/09/04 08:48:20;;;;;;;8.07;6.20;;;;;;;;;;5065248;28;20063;-81
2021/09/04 08:50:49;;;;;;;8.27;6.07;;;;;;;;;;5065164;28;20032;-79
2021/09/04 08:53:15;;;;;;;6.85;5.90;;;;;;;;;;5064618;28;20108;-82
2021/09/04 08:55:41;;;;;;;6.18;5.57;;;;;;;;;;5064816;28;20098;-81
2021/09/04 08:58:08;;;;;;;14.32;6.30;;;;;;;;;;5064045;28;20400;-81
2021/09/04 09:00:36;;;;;;;6.57;5.78;;;;;;;;;;5064429;28;20024;-81
2021/09/04 09:03:02;;;;;;;7.97;5.78;;;;;;;;;;5064976;28;20021;-81
2021/09/04 09:05:38;;;;;;;6.78;5.72;;;;;;;;;;5055551;28;20389;-82
2021/09/04 09:08:04;;;;;;;7.40;5.32;;;;;;;;;;5046064;28;20033;-80
2021/09/04 09:10:32;;;;;;;6.78;5.47;;;;;;;;;;5047668;28;20090;-81
2021/09/04 09:12:58;;;;;;;5.38;4.88;;;;;;;;;;5064715;28;20025;-82
2021/09/04 09:15:25;;;;;;;7.28;5.15;;;;;;;;;;5064972;28;20021;-82
2021/09/04 09:18:02;;;;;;;5.20;4.65;;;;;;;;;;5063300;28;20076;-80
2021/09/04 09:20:28;;;;;;;6.38;5.07;;;;;;;;;;5063117;28;20480;-80
2021/09/04 09:22:55;;;;;;;6.53;5.28;;;;;;;;;;5045690;28;20063;-81
2021/09/04 09:25:21;;;;;;;6.43;5.22;;;;;;;;;;5045261;28;20023;-81
2021/09/04 09:28:02;;;;;;;6.35;5.20;;;;;;;;;;5063372;28;20076;-82
2021/09/04 09:30:29;;;;;;;6.63;5.33;;;;;;;;;;5063015;28;20104;-80
2021/09/04 09:32:55;;;;;;;5.55;5.00;;;;;;;;;;5045473;28;20035;-78
2021/09/04 09:35:31;;;;;;;5.57;5.07;;;;;;;;;;5041884;28;20029;-80
2021/09/04 09:37:57;;;;;;;4.90;4.40;;;;;;;;;;5043684;28;20025;-80
2021/09/04 09:40:25;;;;;;;5.50;4.97;;;;;;;;;;5042566;28;20620;-81
2021/09/04 09:42:51;;;;;;;5.10;4.60;;;;;;;;;;5044639;28;20144;-80
2021/09/04 09:45:17;;;;;;;8.23;4.97;;;;;;;;;;5043398;28;20101;-81
2021/09/04 09:47:50;;;;;;;5.07;4.57;;;;;;;;;;5044585;28;20030;-81
2021/09/04 09:50:16;;;;;;;5.85;5.03;;;;;;;;;;5043863;28;20021;-82
2021/09/04 09:52:43;;;;;;;5.70;5.20;;;;;;;;;;5049066;28;20067;-78
2021/09/04 09:55:09;;;;;;;5.65;4.93;;;;;;;;;;5052703;28;20033;-81
2021/09/04 09:57:35;;;;;;;7.40;5.13;;;;;;;;;;5045603;28;20021;-78
2021/09/04 10:00:02;;;;;;;4.95;4.47;;;;;;;;;;5043400;28;20390;-80
2021/09/04 10:02:34;;;;;;;5.25;4.75;;;;;;;;;;5027745;28;20041;-83
2021/09/04 10:05:00;;;;;;;5.00;4.38;;;;;;;;;;5060119;28;20030;-79
2021/09/04 10:07:26;;;;;;;4.68;4.13;;;;;;;;;;5067793;28;20115;-79
2021/09/04 10:09:52;;;;;;;5.45;4.93;;;;;;;;;;5067131;28;20111;-79
2021/09/04 10:12:19;;;;;;;6.53;4.50;;;;;;;;;;5070199;28;20047;-79
2021/09/04 10:14:46;;;;;;;8.07;5.00;;;;;;;;;;5072115;28;20347;-80
2021/09/04 10:17:13;;;;;;;6.18;4.70;;;;;;;;;;5068820;28;20111;-79
2021/09/04 10:20:05;;;;;;;4.60;4.18;;;;;;;;;;5051573;28;20102;-79
2021/09/04 10:22:32;;;;;;;6.65;4.53;;;;;;;;;;5064389;28;20098;-79
2021/09/04 10:25:02;;;;;;;5.25;4.75;;;;;;;;;;5049335;28;20021;-80
2021/09/04 10:27:30;;;;;;;4.70;4.25;;;;;;;;;;5068948;28;20025;-80
2021/09/04 10:29:56;;;;;;;6.18;4.72;;;;;;;;;;5066462;28;20025;-81
2021/09/04 10:32:22;;;;;;;5.22;4.53;;;;;;;;;;5071706;28;20068;-81
2021/09/04 10:34:49;;;;;;;4.95;4.50;;;;;;;;;;5053232;28;20327;-80
2021/09/04 10:37:19;;;;;;;5.63;5.10;;;;;;;;;;5030374;28;20452;-80
2021/09/04 10:40:07;;;;;;;5.80;4.43;;;;;;;;;;5051184;28;20029;-80
2021/09/04 10:42:40;;;;;;;5.63;5.07;;;;;;;;;;5031542;28;20021;-80
2021/09/04 10:45:17;;;;;;;5.13;4.63;;;;;;;;;;5030759;28;20036;-81
2021/09/04 10:47:44;;;;;;;5.28;4.78;;;;;;;;;;5049066;28;20029;-80
2021/09/04 10:50:30;;;;;;;5.78;5.10;;;;;;;;;;5047206;28;20027;-80
2021/09/04 10:53:02;;;;;;;6.60;4.38;;;;;;;;;;5027887;28;20053;-81
2021/09/04 10:55:29;;;;;;;5.20;4.43;;;;;;;;;;5046740;28;20017;-79
2021/09/04 10:58:05;;;;;;;5.55;4.97;;;;;;;;;;5029235;28;20033;-80
2021/09/04 11:00:35;;;;;;;5.25;4.75;;;;;;;;;;5031157;28;20506;-82
2021/09/04 11:03:01;;;;;;;6.25;4.75;;;;;;;;;;5037366;28;20044;-81
2021/09/04 11:05:28;;;;;;;4.68;4.28;;;;;;;;;;5040802;28;20072;-82
2021/09/04 11:08:01;;;;;;;4.63;3.85;;;;;;;;;;5067937;28;20049;-81
2021/09/04 11:10:27;;;;;;;4.82;4.43;;;;;;;;;;5067718;28;20503;-81
2021/09/04 11:13:12;;;;;;;6.22;4.45;;;;;;;;;;5050290;28;20021;-80
2021/09/04 11:15:41;;;;;;;4.40;4.00;;;;;;;;;;5068524;28;20059;-80
2021/09/04 11:18:07;;;;;;;4.03;3.63;;;;;;;;;;5067561;28;20025;-81
2021/09/04 11:20:33;;;;;;;4.55;4.13;;;;;;;;;;5068580;28;20029;-80
2021/09/04 11:22:59;;;;;;;3.97;3.67;;;;;;;;;;5067801;28;20024;-80
2021/09/04 11:25:25;;;;;;;3.83;3.53;;;;;;;;;;5069001;28;20100;-81
2021/09/04 11:27:51;;;;;;;4.75;3.95;;;;;;;;;;5073135;28;20085;-82
2021/09/04 11:30:20;;;;;;;3.85;3.50;;;;;;;;;;5058112;28;20028;-82
2021/09/04 11:32:46;;;;;;;4.15;3.40;;;;;;;;;;5063727;28;20013;-80
2021/09/04 11:35:12;;;;;;;5.68;4.20;;;;;;;;;;5038011;28;20041;-78
2021/09/04 11:37:42;;;;;;;3.97;3.60;;;;;;;;;;5028008;28;20037;-80
2021/09/04 11:40:09;;;;;;;3.45;3.15;;;;;;;;;;5046828;28;20018;-80
2021/09/04 11:42:39;;;;;;;3.70;3.40;;;;;;;;;;5046587;28;20048;-80
2021/09/04 11:45:05;;;;;;;4.00;3.60;;;;;;;;;;5029892;28;20044;-81
2021/09/04 11:47:31;;;;;;;4.43;4.03;;;;;;;;;;5047258;28;20029;-81
2021/09/04 11:49:59;;;;;;;4.25;3.85;;;;;;;;;;5046271;28;20021;-79
2021/09/04 11:52:31;;;;;;;5.88;4.18;;;;;;;;;;5045235;28;20029;-80
2021/09/04 11:55:23;;;;;;;3.60;3.30;;;;;;;;;;5052329;28;20033;-82
2021/09/04 11:57:59;;;;;;;4.00;3.70;;;;;;;;;;5044487;28;20056;-81
2021/09/04 12:00:26;;;;;;;4.20;3.80;;;;;;;;;;5047391;28;20101;-81
2021/09/04 12:02:57;;;;;;;3.92;3.63;;;;;;;;;;5035183;28;20092;-81
2021/09/04 12:05:24;;;;;;;5.47;3.67;;;;;;;;;;5055712;28;20029;-81
2021/09/04 12:07:51;;;;;;;4.45;4.05;;;;;;;;;;5047387;28;20018;-80
2021/09/04 12:10:21;;;;;;;3.63;3.33;;;;;;;;;;5046960;28;20116;-80
2021/09/04 12:12:52;;;;;;;4.53;3.65;;;;;;;;;;5046947;28;20025;-79
2021/09/04 12:15:18;;;;;;;4.78;3.45;;;;;;;;;;5044590;28;20050;-79
2021/09/04 12:18:15;;;;;;;4.38;3.97;;;;;;;;;;5048840;28;20043;-81
2021/09/04 12:20:46;;;;;;;3.80;3.50;;;;;;;;;;5028315;28;20033;-80
2021/09/04 12:23:11;;;;;;;4.85;4.45;;;;;;;;;;5045998;28;20174;-81
2021/09/04 12:25:38;;;;;;;4.22;3.83;;;;;;;;;;5046835;28;20033;-82
2021/09/04 12:28:05;;;;;;;3.58;3.28;;;;;;;;;;5046408;28;20025;-80
2021/09/04 12:30:32;;;;;;;3.90;3.60;;;;;;;;;;5046591;28;20029;-82
2021/09/04 12:33:02;;;;;;;4.95;3.75;;;;;;;;;;5048260;28;20022;-82
2021/09/04 12:36:07;;;;;;;3.75;3.45;;;;;;;;;;5058250;28;20025;-80
2021/09/04 12:38:44;;;;;;;3.75;3.45;;;;;;;;;;4985417;28;20057;-81
2021/09/04 12:41:10;;;;;;;5.03;3.92;;;;;;;;;;4985015;28;20042;-81
2021/09/04 12:43:48;;;;;;;3.70;3.40;;;;;;;;;;5026808;28;20037;-79
2021/09/04 12:46:24;;;;;;;3.50;3.20;;;;;;;;;;5065988;28;20100;-80
2021/09/04 12:48:50;;;;;;;4.20;3.80;;;;;;;;;;5063530;28;20029;-81
2021/09/04 12:51:16;;;;;;;3.70;3.40;;;;;;;;;;5064676;28;20036;-80
2021/09/04 12:53:43;;;;;;;4.70;3.95;;;;;;;;;;5066321;28;20067;-79
2021/09/04 12:56:09;;;;;;;5.97;3.72;;;;;;;;;;5067955;28;20021;-81
2021/09/04 12:58:35;;;;;;;4.97;3.08;;;;;;;;;;5068887;28;20049;-79
2021/09/04 13:01:06;;;;;;;3.40;3.10;;;;;;;;;;5049994;28;20112;-81
2021/09/04 13:03:32;;;;;;;3.70;3.35;;;;;;;;;;5069851;28;20025;-80
2021/09/04 13:05:58;;;;;;;3.75;3.17;;;;;;;;;;5061331;28;20037;-81
2021/09/04 13:08:24;;;;;;;4.40;3.80;;;;;;;;;;5032563;28;20377;-81
2021/09/04 13:10:50;;;;;;;5.15;3.20;;;;;;;;;;5050772;28;20529;-80
2021/09/04 13:13:16;;;;;;;3.78;3.42;;;;;;;;;;5050426;28;20021;-80
2021/09/04 13:15:42;;;;;;;3.15;2.90;;;;;;;;;;5031608;28;20036;-80
2021/09/04 13:18:08;;;;;;;3.40;3.10;;;;;;;;;;5031830;28;20026;-79
2021/09/04 13:20:35;;;;;;;4.65;3.28;;;;;;;;;;5033617;28;20085;-83
2021/09/04 13:23:01;;;;;;;3.30;3.00;;;;;;;;;;5033538;28;20034;-82
2021/09/04 13:25:27;;;;;;;3.80;3.40;;;;;;;;;;5052706;28;20041;-83
2021/09/04 13:27:53;;;;;;;3.35;3.05;;;;;;;;;;5033491;28;20081;-81
2021/09/04 13:30:19;;;;;;;3.88;3.53;;;;;;;;;;5051201;28;20040;-81
2021/09/04 13:32:46;;;;;;;5.32;3.88;;;;;;;;;;5044348;28;20029;-82
2021/09/04 13:35:12;;;;;;;3.38;3.08;;;;;;;;;;5060979;28;20024;-81
2021/09/04 13:37:38;;;;;;;3.60;3.30;;;;;;;;;;5059024;28;20037;-81
2021/09/04 13:40:05;;;;;;;8.05;3.72;;;;;;;;;;5057096;28;20031;-81
2021/09/04 13:42:31;;;;;;;4.45;3.92;;;;;;;;;;5054313;28;20048;-82
2021/09/04 13:44:58;;;;;;;3.83;3.45;;;;;;;;;;5055636;28;20017;-82
2021/09/04 13:47:24;;;;;;;4.28;3.55;;;;;;;;;;5054760;28;20029;-81
2021/09/04 13:49:50;;;;;;;4.00;3.60;;;;;;;;;;5066464;28;20040;-82
2021/09/04 13:52:17;;;;;;;6.07;3.90;;;;;;;;;;5059899;28;20473;-80
2021/09/04 13:54:43;;;;;;;4.05;3.17;;;;;;;;;;5061172;28;20033;-80
2021/09/04 13:57:26;;;;;;;4.18;3.30;;;;;;;;;;5062891;28;20041;-80
2021/09/04 13:59:55;;;;;;;4.13;3.72;;;;;;;;;;5048593;28;20029;-81
2021/09/04 14:02:24;;;;;;;3.97;3.35;;;;;;;;;;5065278;28;20035;-82
2021/09/04 14:04:50;;;;;;;4.47;3.50;;;;;;;;;;5054837;28;20032;-79
2021/09/04 14:07:16;;;;;;;3.42;3.13;;;;;;;;;;5042805;28;20095;-79
2021/09/04 14:09:42;;;;;;;3.97;3.58;;;;;;;;;;5041496;28;20069;-79
2021/09/04 14:12:09;;;;;;;4.25;3.42;;;;;;;;;;5046309;28;20028;-80
2021/09/04 14:14:35;;;;;;;4.35;3.80;;;;;;;;;;5045007;28;20025;-80
2021/09/04 14:17:01;;;;;;;4.07;3.60;;;;;;;;;;5047215;28;20025;-80
2021/09/04 14:19:27;;;;;;;3.85;3.47;;;;;;;;;;5045712;28;20492;-79
2021/09/04 14:21:53;;;;;;;6.13;3.70;;;;;;;;;;5045651;28;20064;-81
2021/09/04 14:24:20;;;;;;;5.28;3.58;;;;;;;;;;5049370;28;20026;-81
2021/09/04 14:26:46;;;;;;;5.00;3.60;;;;;;;;;;5051555;28;20033;-80
2021/09/04 14:29:12;;;;;;;3.70;3.40;;;;;;;;;;5045345;28;20036;-81
2021/09/04 14:31:38;;;;;;;4.07;3.67;;;;;;;;;;5043443;28;20116;-81
2021/09/04 14:34:04;;;;;;;4.15;3.72;;;;;;;;;;5059919;28;20025;-81
2021/09/04 14:36:30;;;;;;;3.75;3.45;;;;;;;;;;5058587;28;20029;-79
2021/09/04 14:38:56;;;;;;;5.05;4.10;;;;;;;;;;5077580;22;20068;-80
2021/09/04 14:41:22;;;;;;;3.38;3.03;;;;;;;;;;5056892;28;20043;-80
2021/09/04 14:43:48;;;;;;;4.28;3.67;;;;;;;;;;5055707;28;20436;-81
2021/09/04 14:46:16;;;;;;;4.07;3.67;;;;;;;;;;5056035;28;20029;-81
2021/09/04 14:48:42;;;;;;;4.68;3.38;;;;;;;;;;5037870;28;20040;-81